Time;durP1;ratioP1;P1;durP2;ratioP2;P2;SDS_P1;SDS_P2;PMS_P1;PMS_P2;Temp;Humidity;BMP_temperature;BMP_pressure;BME280_temperature;BME280_humidity;BME280_pressure;Samples;Min_cycle;Max_cycle;Signal;HPM_P1;HPM_P2
2022/09/01 00:49:45;;;;;;;36.10;25.90;;;;;;;15.47;100.00;96537.66;5430799;23;20071;-87
2022/09/01 01:03:00;;;;;;;32.30;23.17;;;;;;;15.48;100.00;96531.81;5958998;23;20006;-80
2022/09/01 01:28:43;;;;;;;38.75;26.08;;;;;;;15.47;100.00;96521.22;5204466;22;20019;-88
2022/09/01 02:02:13;;;;;;;37.17;25.42;;;;;;;15.46;99.22;96505.91;5675258;23;20272;-85
2022/09/01 02:04:41;;;;;;;34.88;24.90;;;;;;;15.44;99.29;96505.41;4976733;28;20045;-87
2022/09/01 02:20:53;;;;;;;32.13;21.92;;;;;;;15.34;98.87;96496.50;5173688;22;20041;-84
2022/09/01 02:23:23;;;;;;;36.33;24.15;;;;;;;15.26;98.57;96491.97;4935869;28;20056;-86
2022/09/01 02:25:52;;;;;;;31.55;22.13;;;;;;;15.28;98.36;96497.91;4920646;28;20200;-86
2022/09/01 02:31:07;;;;;;;31.35;23.42;;;;;;;15.29;98.50;96504.19;5101629;23;20066;-81
2022/09/01 02:38:54;;;;;;;34.60;22.95;;;;;;;15.24;97.55;96499.72;5691845;22;20043;-75
2022/09/01 02:41:23;;;;;;;30.13;20.85;;;;;;;15.23;97.36;96492.63;5263202;23;20150;-81
2022/09/01 02:51:37;;;;;;;32.78;22.80;;;;;;;15.12;97.23;96497.78;5596774;22;20044;-85
2022/09/01 02:54:05;;;;;;;36.80;22.45;;;;;;;15.09;97.57;96494.94;4935005;28;20052;-85
2022/09/01 02:56:33;;;;;;;30.58;21.35;;;;;;;15.09;98.19;96489.47;4935421;28;20071;-87
2022/09/01 02:59:01;;;;;;;31.13;21.63;;;;;;;15.06;98.19;96492.88;4937531;28;20040;-86
2022/09/01 03:04:08;;;;;;;34.15;23.00;;;;;;;15.04;98.04;96492.44;5037050;23;20070;-76
2022/09/01 03:06:37;;;;;;;34.65;23.42;;;;;;;15.07;98.58;96486.25;5127871;23;20261;-87
2022/09/01 03:09:07;;;;;;;27.90;20.58;;;;;;;15.06;98.67;96487.41;4956831;28;20095;-76
2022/09/01 03:16:46;;;;;;;35.75;23.98;;;;;;;15.01;98.34;96488.44;5758543;23;20039;-88
2022/09/01 03:21:48;;;;;;;30.95;22.60;;;;;;;15.00;97.55;96486.03;5533383;23;20024;-87
2022/09/01 03:24:17;;;;;;;32.92;22.83;;;;;;;14.97;97.22;96493.00;4936155;28;20079;-85
2022/09/01 03:26:46;;;;;;;30.75;22.38;;;;;;;14.97;97.16;96486.72;5054330;23;20039;-86
2022/09/01 03:29:14;;;;;;;28.52;21.30;;;;;;;14.93;96.97;96483.06;4956274;28;20048;-83
2022/09/01 03:31:41;;;;;;;28.92;20.77;;;;;;;14.91;97.31;96479.84;4957121;28;20039;-86
2022/09/01 03:46:57;;;;;;;30.00;21.48;;;;;;;14.90;98.46;96486.50;5813027;22;20055;-85
2022/09/01 03:49:27;;;;;;;37.13;24.13;;;;;;;14.86;99.11;96484.44;4975558;28;20059;-86
2022/09/01 04:02:06;;;;;;;34.65;24.45;;;;;;;15.03;99.91;96477.09;5485391;22;20048;-78
2022/09/01 04:04:33;;;;;;;34.58;24.30;;;;;;;15.01;100.00;96473.91;5467248;23;20067;-87
2022/09/01 04:07:00;;;;;;;40.85;27.25;;;;;;;15.01;100.00;96471.19;4960569;23;20059;-83
2022/09/01 04:09:26;;;;;;;31.48;23.38;;;;;;;15.07;100.00;96469.78;4934939;28;20075;-85
2022/09/01 04:11:53;;;;;;;31.08;22.92;;;;;;;15.10;100.00;96469.91;4936191;28;20042;-87
2022/09/01 04:14:20;;;;;;;35.72;23.85;;;;;;;15.07;99.70;96461.56;4934808;28;20056;-87
2022/09/01 04:19:38;;;;;;;31.30;21.67;;;;;;;15.14;99.82;96472.78;4933882;28;20067;-86
2022/09/01 04:22:06;;;;;;;;;;;;;;;15.14;99.46;96464.56;4936019;28;20064;-81
2022/09/01 04:24:33;;;;;;;31.08;20.10;;;;;;;15.10;99.21;96463.63;5059566;23;19923;-85
2022/09/01 04:29:36;;;;;;;35.80;22.60;;;;;;;15.07;98.64;96475.28;5636569;23;20043;-84
2022/09/01 04:32:06;;;;;;;28.85;19.08;;;;;;;15.09;98.84;96462.03;4988721;23;20048;-76
2022/09/01 04:37:13;;;;;;;29.00;20.50;;;;;;;15.04;98.73;96470.50;5340645;23;20055;-81
2022/09/01 04:39:47;;;;;;;33.67;22.67;;;;;;;14.99;98.63;96477.00;4934895;28;20108;-86
2022/09/01 04:44:39;;;;;;;30.60;20.95;;;;;;;15.01;97.92;96473.91;5189853;23;20103;-87
2022/09/01 04:47:09;;;;;;;31.23;22.08;;;;;;;15.01;98.39;96476.66;4933135;28;20055;-85
2022/09/01 04:49:37;;;;;;;32.15;21.80;;;;;;;15.03;98.27;96468.88;4934306;28;20044;-87
2022/09/01 04:52:04;;;;;;;34.40;22.80;;;;;;;15.05;98.50;96469.34;4933540;28;20051;-75
2022/09/01 04:54:35;;;;;;;35.05;22.48;;;;;;;14.99;98.30;96466.03;4934122;28;20044;-85
2022/09/01 04:57:03;;;;;;;31.30;21.70;;;;;;;15.05;97.96;96472.09;4934049;28;20052;-77
2022/09/01 04:59:30;;;;;;;33.45;21.02;;;;;;;15.04;97.94;96470.50;4934038;28;20040;-86
2022/09/01 05:01:59;;;;;;;29.15;21.42;;;;;;;15.07;97.57;96470.59;4933847;28;20052;-86
2022/09/01 05:04:31;;;;;;;30.45;21.58;;;;;;;15.04;97.91;96462.28;4933308;28;20032;-84
2022/09/01 05:06:59;;;;;;;34.42;23.40;;;;;;;15.06;97.96;96457.22;4934049;28;20104;-86
2022/09/01 05:09:27;;;;;;;28.63;19.02;;;;;;;15.11;98.42;96465.22;4932062;28;20048;-85
2022/09/01 05:11:56;;;;;;;35.50;24.85;;;;;;;15.11;98.69;96462.50;4933335;28;20071;-85
2022/09/01 05:14:24;;;;;;;30.52;21.02;;;;;;;15.18;98.63;96464.66;4935892;28;20032;-86
2022/09/01 05:16:55;;;;;;;28.23;20.13;;;;;;;15.18;98.74;96459.97;4936772;28;20040;-86
2022/09/01 05:19:23;;;;;;;32.22;22.23;;;;;;;15.20;98.27;96463.16;4921677;28;20072;-80
2022/09/01 05:21:50;;;;;;;31.48;21.50;;;;;;;15.22;98.04;96463.63;4920823;28;20056;-81
2022/09/01 05:24:20;;;;;;;30.10;21.10;;;;;;;15.21;98.21;96459.28;4915161;28;20073;-81
2022/09/01 05:26:49;;;;;;;33.50;24.48;;;;;;;15.21;98.50;96463.97;4914978;28;20462;-81
2022/09/01 05:29:17;;;;;;;29.33;20.42;;;;;;;15.24;98.81;96461.31;4954083;28;20774;-82
2022/09/01 05:31:47;;;;;;;37.72;23.42;;;;;;;15.20;98.70;96462.38;4938631;28;20048;-82
2022/09/01 05:34:18;;;;;;;31.25;21.90;;;;;;;15.24;98.44;96472.28;4972212;28;20059;-85
2022/09/01 05:36:49;;;;;;;34.10;23.05;;;;;;;15.18;98.15;96470.94;5011995;28;20057;-83
2022/09/01 05:39:16;;;;;;;33.65;22.70;;;;;;;15.24;98.08;96464.06;5016372;28;20049;-84
2022/09/01 05:41:44;;;;;;;33.95;23.65;;;;;;;15.21;98.49;96467.50;5026898;28;20145;-83
2022/09/01 05:44:12;;;;;;;35.60;23.42;;;;;;;15.24;98.26;96464.06;5022918;28;20065;-85
2022/09/01 05:46:43;;;;;;;29.05;20.95;;;;;;;15.33;98.67;96459.25;5012628;23;20048;-83
2022/09/01 05:49:12;;;;;;;32.65;23.10;;;;;;;15.38;98.30;96459.00;4931128;28;20116;-80
2022/09/01 05:51:42;;;;;;;34.72;23.48;;;;;;;15.30;98.49;96462.69;4915813;28;20408;-81
2022/09/01 05:54:10;;;;;;;32.45;22.13;;;;;;;15.34;98.05;96466.31;4913076;28;20048;-80
2022/09/01 05:56:40;;;;;;;31.05;20.25;;;;;;;15.31;97.79;96469.78;4913522;28;20116;-80
2022/09/01 05:59:09;;;;;;;28.92;20.10;;;;;;;15.34;97.50;96473.75;4912430;28;20052;-80
2022/09/01 06:01:47;;;;;;;28.60;20.85;;;;;;;15.41;97.40;96468.50;4910476;28;20048;-84
2022/09/01 06:04:14;;;;;;;30.98;21.85;;;;;;;15.40;97.42;96467.72;4900667;28;20107;-78
2022/09/01 06:06:45;;;;;;;31.85;21.45;;;;;;;15.39;96.76;96465.28;4972723;28;20042;-77
2022/09/01 06:09:16;;;;;;;35.40;23.23;;;;;;;15.37;96.88;96468.38;5011721;28;20054;-77
2022/09/01 06:11:45;;;;;;;31.20;21.73;;;;;;;15.37;96.91;96473.88;5013145;28;20034;-77
2022/09/01 06:14:12;;;;;;;29.02;21.15;;;;;;;15.35;96.52;96467.94;5012494;28;20672;-77
2022/09/01 06:16:38;;;;;;;30.15;20.90;;;;;;;15.29;96.03;96477.53;5013075;28;20046;-77
2022/09/01 06:19:06;;;;;;;28.17;19.38;;;;;;;15.40;96.12;96478.69;4985587;28;20459;-76
2022/09/01 06:21:33;;;;;;;31.10;21.67;;;;;;;15.47;97.05;96482.78;4932173;28;20047;-74
2022/09/01 06:23:59;;;;;;;31.05;22.10;;;;;;;15.44;96.50;96483.47;4932058;28;20051;-75
2022/09/01 06:26:29;;;;;;;27.80;19.63;;;;;;;15.41;97.60;96487.72;4930735;28;20054;-75
2022/09/01 06:28:57;;;;;;;30.60;20.58;;;;;;;15.35;96.38;96481.66;4932034;28;20043;-74
2022/09/01 06:31:27;;;;;;;29.00;20.73;;;;;;;15.40;96.09;96484.19;4931783;28;20044;-76
2022/09/01 06:33:59;;;;;;;30.35;21.67;;;;;;;15.38;96.27;96486.44;4932009;28;20071;-75
2022/09/01 06:36:27;;;;;;;24.23;17.90;;;;;;;15.47;95.50;96491.03;4931601;28;20043;-76
2022/09/01 06:38:55;;;;;;;26.38;19.15;;;;;;;15.37;95.03;96492.28;4932026;28;20036;-75
2022/09/01 06:41:23;;;;;;;29.35;19.92;;;;;;;15.42;94.96;96494.00;4931430;28;20047;-75
2022/09/01 06:43:51;;;;;;;25.17;18.00;;;;;;;15.55;95.20;96496.34;4931854;28;20094;-77
2022/09/01 06:46:18;;;;;;;27.55;18.95;;;;;;;15.61;95.77;96499.69;4930951;28;20059;-75
2022/09/01 06:48:46;;;;;;;28.27;19.40;;;;;;;15.61;95.40;96494.19;4930526;28;20131;-77
2022/09/01 06:51:15;;;;;;;22.75;17.60;;;;;;;15.52;93.14;96491.56;4912408;28;20067;-76
2022/09/01 06:53:44;;;;;;;25.38;18.42;;;;;;;15.31;91.20;96497.22;4912995;28;20068;-75
2022/09/01 06:56:12;;;;;;;24.48;17.80;;;;;;;15.37;91.13;96495.03;4912374;28;20458;-76
2022/09/01 06:58:40;;;;;;;28.38;18.80;;;;;;;15.22;92.51;96504.75;4913011;28;20102;-75
2022/09/01 07:01:14;;;;;;;22.00;16.60;;;;;;;15.33;92.49;96502.34;4912197;28;20725;-75
2022/09/01 07:03:41;;;;;;;22.92;18.05;;;;;;;15.43;92.47;96501.09;4912731;28;20059;-76
2022/09/01 07:06:08;;;;;;;21.80;16.75;;;;;;;15.49;92.80;96507.94;4911941;28;20063;-74
2022/09/01 07:08:38;;;;;;;26.55;19.75;;;;;;;15.29;91.61;96504.19;5007135;28;20054;-75
2022/09/01 07:11:07;;;;;;;22.42;17.58;;;;;;;15.31;91.79;96518.38;5008857;28;20457;-74
2022/09/01 07:13:35;;;;;;;23.27;18.48;;;;;;;15.23;91.16;96522.81;5009017;28;20077;-75
2022/09/01 07:16:05;;;;;;;23.45;17.98;;;;;;;15.18;91.98;96517.56;5008324;28;20833;-74
2022/09/01 07:18:33;;;;;;;23.85;18.35;;;;;;;15.18;92.01;96520.31;5004583;28;20072;-75
2022/09/01 07:21:01;;;;;;;26.20;19.55;;;;;;;15.18;92.16;96525.78;4909626;28;20055;-75
2022/09/01 07:23:28;;;;;;;22.52;18.55;;;;;;;15.13;90.99;96528.75;4909571;28;20127;-75
2022/09/01 07:25:56;;;;;;;23.77;18.98;;;;;;;15.25;91.26;96527.97;4911751;28;20072;-75
2022/09/01 07:28:28;;;;;;;24.02;18.48;;;;;;;15.26;90.60;96522.13;4911883;28;20604;-79
2022/09/01 07:30:55;;;;;;;23.90;18.15;;;;;;;15.44;90.35;96519.13;4911570;28;20079;-77
2022/09/01 07:33:23;;;;;;;27.38;18.58;;;;;;;15.48;89.09;96522.81;4911798;28;20129;-77
2022/09/01 07:35:52;;;;;;;21.67;17.85;;;;;;;15.48;89.04;96520.84;4912185;28;20056;-76
2022/09/01 07:38:19;;;;;;;25.02;18.35;;;;;;;15.54;88.48;96529.66;4911720;28;20139;-77
2022/09/01 07:40:47;;;;;;;20.90;17.23;;;;;;;15.53;89.06;96530.78;4911789;28;20036;-78
2022/09/01 07:43:21;;;;;;;23.10;18.85;;;;;;;15.53;88.79;96542.56;4911672;28;20067;-76
2022/09/01 07:45:49;;;;;;;;;;;;;;;15.54;88.21;96532.41;4912290;28;20139;-76
2022/09/01 07:48:19;;;;;;;21.45;17.02;;;;;;;15.54;87.82;96543.38;4911402;28;19923;-77
2022/09/01 07:50:47;;;;;;;18.90;16.13;;;;;;;15.54;87.36;96544.16;4912120;28;20491;-76
2022/09/01 07:53:15;;;;;;;17.92;14.73;;;;;;;15.49;85.57;96533.44;4911431;28;20045;-76
2022/09/01 07:55:42;;;;;;;19.30;15.95;;;;;;;15.59;86.26;96538.44;4911795;28;20051;-76
2022/09/01 07:58:09;;;;;;;20.27;16.08;;;;;;;15.73;86.84;96545.56;4911473;28;20048;-76
2022/09/01 08:00:35;;;;;;;17.75;15.38;;;;;;;15.72;85.93;96539.25;4911797;28;20056;-78
2022/09/01 08:03:03;;;;;;;21.15;15.23;;;;;;;15.74;85.36;96547.94;4911290;28;20040;-78
2022/09/01 08:05:31;;;;;;;20.85;15.63;;;;;;;15.85;85.82;96548.25;4911659;28;20048;-77
2022/09/01 08:07:57;;;;;;;17.17;14.90;;;;;;;16.04;86.47;96544.91;4911510;28;20102;-75
2022/09/01 08:10:24;;;;;;;17.50;14.93;;;;;;;16.13;85.33;96548.28;4911157;28;20049;-78
2022/09/01 08:12:51;;;;;;;18.63;13.77;;;;;;;16.27;85.09;96551.44;4911359;28;20055;-75
2022/09/01 08:15:17;;;;;;;17.70;13.68;;;;;;;16.21;82.15;96555.59;4911178;28;20056;-77
2022/09/01 08:17:45;;;;;;;16.52;12.57;;;;;;;16.20;83.39;96561.44;4911450;28;20051;-78
2022/09/01 08:20:13;;;;;;;15.80;13.43;;;;;;;16.11;83.00;96567.88;4911365;28;20064;-78
2022/09/01 08:22:39;;;;;;;15.60;12.45;;;;;;;16.29;81.93;96562.91;4911404;28;20527;-77
2022/09/01 08:25:07;;;;;;;17.50;12.00;;;;;;;16.43;82.48;96563.28;4911086;28;20051;-78
2022/09/01 08:27:37;;;;;;;14.93;11.43;;;;;;;16.68;80.37;96569.44;4911237;28;20044;-76
2022/09/01 08:30:06;;;;;;;16.48;10.68;;;;;;;16.76;76.58;96569.66;4910738;28;20048;-78
2022/09/01 08:32:32;;;;;;;15.23;10.68;;;;;;;16.86;77.07;96572.72;4911647;28;20044;-77
2022/09/01 08:35:00;;;;;;;15.77;10.23;;;;;;;16.92;76.66;96578.75;4911281;28;20051;-75
2022/09/01 08:37:27;;;;;;;15.45;10.88;;;;;;;16.93;77.46;96580.34;4910692;28;20063;-77
2022/09/01 08:39:54;;;;;;;15.07;10.63;;;;;;;16.99;78.18;96583.63;4911222;28;20513;-78
2022/09/01 08:42:37;;;;;;;17.60;11.50;;;;;;;16.90;77.03;96579.09;4911077;28;20106;-79
2022/09/01 08:45:12;;;;;;;11.63;9.35;;;;;;;17.06;76.61;96581.84;4910786;28;20052;-74
2022/09/01 08:47:39;;;;;;;14.30;11.15;;;;;;;17.07;77.84;96583.47;4911212;28;20052;-76
2022/09/01 08:50:07;;;;;;;14.68;11.38;;;;;;;17.10;75.95;96590.22;4911418;28;20047;-77
2022/09/01 08:52:38;;;;;;;12.38;10.40;;;;;;;17.05;76.41;96577.50;4911483;28;20044;-77
2022/09/01 08:55:14;;;;;;;12.20;10.05;;;;;;;17.11;77.03;96586.28;4911281;28;20040;-78
2022/09/01 08:57:43;;;;;;;12.93;10.32;;;;;;;17.04;75.61;96581.41;4911721;28;20048;-78
2022/09/01 09:00:13;;;;;;;12.10;10.00;;;;;;;17.09;76.99;96583.09;4911214;28;20052;-77
2022/09/01 09:02:51;;;;;;;14.60;10.85;;;;;;;17.10;75.19;96584.69;4911771;28;20460;-77
2022/09/01 09:05:30;;;;;;;13.93;10.60;;;;;;;17.12;75.32;96582.38;4911359;28;20048;-75
2022/09/01 09:08:32;;;;;;;15.02;10.07;;;;;;;17.21;74.90;96577.50;4911545;28;20618;-76
2022/09/01 09:11:01;;;;;;;11.60;9.13;;;;;;;17.55;75.54;96572.44;4941817;28;20034;-77
2022/09/01 09:13:41;;;;;;;12.15;8.90;;;;;;;17.57;71.37;96581.94;4944286;28;20052;-75
2022/09/01 09:16:13;;;;;;;10.73;8.73;;;;;;;17.61;71.27;96577.31;4911902;28;20044;-76
2022/09/01 09:18:47;;;;;;;9.95;8.25;;;;;;;17.78;73.53;96578.91;4908967;28;20088;-77
2022/09/01 09:21:19;;;;;;;9.98;7.05;;;;;;;17.81;71.66;96574.63;4908356;28;20115;-77
2022/09/01 09:23:54;;;;;;;7.00;5.72;;;;;;;17.87;68.42;96579.50;4909958;28;20052;-76
2022/09/01 09:26:21;;;;;;;8.00;5.93;;;;;;;17.77;68.88;96579.25;4926391;28;20055;-76
2022/09/01 09:28:48;;;;;;;8.20;5.88;;;;;;;18.16;70.01;96574.59;4926912;28;20423;-78
2022/09/01 09:31:30;;;;;;;9.55;6.97;;;;;;;18.61;72.12;96571.19;4926283;28;20047;-76
2022/09/01 09:33:57;;;;;;;9.45;6.57;;;;;;;18.70;65.25;96571.00;4926747;28;20051;-76
2022/09/01 09:36:30;;;;;;;8.95;6.55;;;;;;;18.85;66.70;96578.38;4926560;28;20055;-77
2022/09/01 09:39:10;;;;;;;8.65;6.22;;;;;;;18.99;68.02;96575.84;4926689;28;20047;-79
2022/09/01 09:41:38;;;;;;;8.63;6.68;;;;;;;19.17;68.93;96575.38;4926936;28;20043;-79
2022/09/01 09:44:14;;;;;;;8.57;6.43;;;;;;;19.01;64.53;96569.97;4925879;28;20052;-78
2022/09/01 09:46:43;;;;;;;7.43;6.43;;;;;;;18.80;63.82;96570.41;4927152;28;20082;-78
2022/09/01 09:49:15;;;;;;;8.43;6.03;;;;;;;18.87;65.14;96570.50;4922189;28;20048;-76
2022/09/01 09:51:47;;;;;;;7.60;6.53;;;;;;;18.65;64.32;96569.28;4907334;28;20059;-76
2022/09/01 09:54:18;;;;;;;8.33;6.40;;;;;;;18.57;64.94;96567.56;4907148;28;20044;-76
2022/09/01 09:56:46;;;;;;;7.20;6.10;;;;;;;18.60;66.71;96566.03;4907578;28;20287;-75
2022/09/01 09:59:19;;;;;;;8.10;6.45;;;;;;;18.60;66.26;96560.53;4907235;28;20415;-78
2022/09/01 10:01:50;;;;;;;6.90;5.88;;;;;;;18.46;65.36;96564.59;4910514;28;20052;-78
2022/09/01 10:04:32;;;;;;;7.28;5.90;;;;;;;18.72;67.03;96563.13;4910389;28;20676;-76
2022/09/01 10:06:59;;;;;;;8.70;6.05;;;;;;;19.01;66.84;96565.25;4910851;28;20059;-78
2022/09/01 10:09:37;;;;;;;6.45;5.60;;;;;;;19.26;63.65;96560.16;4910312;28;20059;-79
2022/09/01 10:12:05;;;;;;;6.57;5.30;;;;;;;19.38;61.27;96561.13;4909804;28;20081;-78
2022/09/01 10:14:38;;;;;;;6.25;4.95;;;;;;;19.64;64.45;96547.38;4910629;28;20072;-77
2022/09/01 10:17:12;;;;;;;8.68;5.30;;;;;;;19.89;62.98;96547.72;4909930;28;20045;-77
2022/09/01 10:19:53;;;;;;;5.60;4.45;;;;;;;19.96;61.16;96553.34;4910808;28;20071;-77
2022/09/01 10:22:20;;;;;;;6.07;4.38;;;;;;;20.08;58.58;96532.97;4910640;28;20056;-78
2022/09/01 10:24:48;;;;;;;5.47;4.40;;;;;;;20.15;60.55;96540.53;4910865;28;20075;-78
2022/09/01 10:27:20;;;;;;;7.72;4.50;;;;;;;20.15;60.55;96537.78;4910396;28;20416;-77
2022/09/01 10:29:51;;;;;;;7.18;4.78;;;;;;;20.28;60.55;96536.38;4912343;28;20059;-77
2022/09/01 10:32:20;;;;;;;6.80;4.45;;;;;;;20.27;58.60;96534.78;4909684;28;20063;-80
2022/09/01 10:34:48;;;;;;;8.57;4.78;;;;;;;20.19;57.59;96533.09;4911831;28;20055;-77
2022/09/01 10:37:16;;;;;;;6.65;4.53;;;;;;;20.13;57.43;96532.63;4909972;28;20075;-77
2022/09/01 10:40:17;;;;;;;5.50;4.28;;;;;;;20.25;57.39;96531.59;4909958;28;20542;-75
2022/09/01 10:42:46;;;;;;;9.32;4.72;;;;;;;20.25;57.78;96531.59;4910371;28;20051;-78
2022/09/01 10:45:29;;;;;;;5.63;3.70;;;;;;;20.31;58.86;96524.56;4909574;28;20072;-78
2022/09/01 10:47:56;;;;;;;6.28;4.22;;;;;;;20.36;58.39;96529.78;4892966;28;20048;-78
2022/09/01 10:50:30;;;;;;;4.88;4.20;;;;;;;20.47;57.00;96532.69;4912431;28;20419;-77
2022/09/01 10:53:05;;;;;;;6.88;4.30;;;;;;;20.55;57.17;96524.06;4912686;28;20447;-78
2022/09/01 10:55:41;;;;;;;6.35;4.10;;;;;;;20.51;56.55;96528.75;4912471;28;20407;-78
2022/09/01 10:58:41;;;;;;;5.93;3.90;;;;;;;20.39;59.31;96526.22;4912459;28;20123;-78
2022/09/01 11:01:08;;;;;;;7.20;4.07;;;;;;;20.06;58.33;96530.56;4911372;28;20057;-78
2022/09/01 11:03:52;;;;;;;3.78;3.33;;;;;;;19.93;57.19;96531.97;4912547;28;20048;-79
2022/09/01 11:06:52;;;;;;;5.45;3.40;;;;;;;19.77;56.35;96528.59;4912660;28;20052;-79
2022/09/01 11:09:24;;;;;;;4.95;3.25;;;;;;;19.89;56.76;96533.91;4912301;28;20381;-78
2022/09/01 11:12:11;;;;;;;4.95;3.13;;;;;;;19.86;57.23;96537.41;4912249;28;20055;-77
2022/09/01 11:14:48;;;;;;;5.25;3.33;;;;;;;19.85;57.74;96529.50;4912559;28;20036;-79
2022/09/01 11:17:19;;;;;;;4.43;2.67;;;;;;;19.86;57.18;96534.66;4912197;28;20059;-78
2022/09/01 11:19:54;;;;;;;5.82;3.10;;;;;;;19.71;55.66;96530.09;4912877;28;20048;-79
2022/09/01 11:22:25;;;;;;;5.35;3.70;;;;;;;19.76;58.11;96529.78;4912043;28;20642;-78
2022/09/01 11:25:21;;;;;;;5.03;3.30;;;;;;;19.77;57.33;96528.59;4912291;28;20044;-79
2022/09/01 11:28:01;;;;;;;6.30;3.22;;;;;;;19.62;57.54;96526.78;4912233;28;20059;-79
2022/09/01 11:30:36;;;;;;;3.78;2.92;;;;;;;19.75;58.34;96530.94;4912067;28;20044;-79
2022/09/01 11:33:16;;;;;;;4.75;3.00;;;;;;;19.85;60.39;96523.97;4911822;28;20099;-78
2022/09/01 11:35:44;;;;;;;3.65;3.10;;;;;;;19.85;59.67;96522.00;4912450;28;20491;-81
2022/09/01 11:38:14;;;;;;;6.28;3.63;;;;;;;19.75;56.47;96517.13;4911626;28;20059;-79
2022/09/01 11:40:41;;;;;;;5.03;2.80;;;;;;;19.74;56.69;96518.31;4912170;28;20060;-79
2022/09/01 11:43:13;;;;;;;6.38;3.10;;;;;;;19.69;56.88;96513.09;4911467;28;20102;-79
2022/09/01 11:45:55;;;;;;;9.20;3.08;;;;;;;19.64;56.87;96518.94;4911987;28;20131;-79
2022/09/01 11:48:24;;;;;;;5.28;3.25;;;;;;;19.66;58.25;96524.88;4911908;28;20060;-79
2022/09/01 11:50:59;;;;;;;3.95;2.70;;;;;;;19.69;59.17;96521.38;4911878;28;20127;-78
2022/09/01 11:53:26;;;;;;;4.32;2.80;;;;;;;19.71;59.07;96513.50;4911445;28;20519;-78
2022/09/01 11:55:55;;;;;;;4.40;2.78;;;;;;;19.75;58.76;96520.69;4911877;28;20044;-78
2022/09/01 11:58:38;;;;;;;6.63;3.10;;;;;;;19.77;58.24;96512.00;4911842;28;20060;-78
2022/09/01 12:01:19;;;;;;;5.07;2.50;;;;;;;19.87;55.89;96516.88;4911487;28;20048;-78
2022/09/01 12:03:47;;;;;;;6.10;2.53;;;;;;;19.93;55.39;96512.63;4911911;28;20098;-78
2022/09/01 12:06:21;;;;;;;3.55;2.28;;;;;;;19.89;56.00;96509.03;4911445;28;20051;-79
2022/09/01 12:08:54;;;;;;;3.92;2.10;;;;;;;19.99;55.88;96513.91;4911951;28;20041;-79
2022/09/01 12:11:22;;;;;;;;;;;;;;;20.00;55.66;96504.44;4911967;28;20052;-78
2022/09/01 12:13:58;;;;;;;4.72;2.58;;;;;;;20.06;55.76;96511.22;4911508;28;20379;-79
2022/09/01 12:16:25;;;;;;;3.85;2.30;;;;;;;20.03;53.77;96513.94;4911471;28;20047;-79
2022/09/01 12:18:55;;;;;;;4.68;2.30;;;;;;;20.04;56.38;96505.25;4911529;28;20048;-79
2022/09/01 12:21:25;;;;;;;4.03;2.20;;;;;;;20.19;56.23;96510.97;4910919;28;20055;-79
2022/09/01 12:23:52;;;;;;;5.75;2.42;;;;;;;20.14;54.57;96503.00;4910797;28;20052;-79
2022/09/01 12:26:29;;;;;;;3.78;2.30;;;;;;;20.12;55.49;96499.84;4911120;28;20044;-79
2022/09/01 12:28:58;;;;;;;4.18;2.38;;;;;;;20.10;54.12;96496.63;4911357;28;20415;-78
2022/09/01 12:31:26;;;;;;;6.00;2.50;;;;;;;20.11;53.61;96512.06;4911272;28;20055;-79
2022/09/01 12:33:55;;;;;;;8.13;2.40;;;;;;;20.18;52.98;96510.19;4911226;28;20063;-80
2022/09/01 12:36:24;;;;;;;3.25;2.00;;;;;;;20.31;53.40;96507.97;4911129;28;20146;-79
2022/09/01 12:38:53;;;;;;;2.72;2.15;;;;;;;20.31;52.12;96511.53;4911357;28;20051;-79
2022/09/01 12:41:25;;;;;;;2.97;2.00;;;;;;;20.53;54.31;96512.59;4910764;28;20040;-79
2022/09/01 12:43:52;;;;;;;5.68;2.40;;;;;;;20.42;51.46;96508.88;4911534;28;20045;-80
2022/09/01 12:46:43;;;;;;;3.28;2.10;;;;;;;20.59;53.70;96501.97;4910575;28;20175;-79
2022/09/01 12:49:23;;;;;;;3.60;2.10;;;;;;;20.69;51.16;96506.84;4910655;28;20519;-79
2022/09/01 12:52:05;;;;;;;6.30;2.00;;;;;;;20.84;51.27;96513.31;4911236;28;20080;-78
2022/09/01 12:54:31;;;;;;;5.00;2.15;;;;;;;20.94;51.12;96509.84;4910838;28;20507;-80
2022/09/01 12:56:58;;;;;;;4.32;2.78;;;;;;;20.79;52.50;96511.69;4911144;28;20044;-79
2022/09/01 12:59:26;;;;;;;3.10;2.03;;;;;;;20.66;50.73;96512.31;4910545;28;20048;-78
2022/09/01 13:01:54;;;;;;;2.75;2.05;;;;;;;20.71;51.44;96514.75;4911132;28;20048;-78
2022/09/01 13:04:27;;;;;;;4.03;2.00;;;;;;;20.70;51.69;96513.94;4910559;28;20055;-79
2022/09/01 13:06:55;;;;;;;3.75;1.90;;;;;;;20.79;54.50;96510.88;4911025;28;20496;-79
2022/09/01 13:09:22;;;;;;;4.50;1.95;;;;;;;20.82;53.68;96510.91;4910599;28;20052;-80
2022/09/01 13:11:48;;;;;;;3.95;2.03;;;;;;;20.91;54.00;96502.28;4911068;28;20044;-78
2022/09/01 13:14:17;;;;;;;2.72;2.13;;;;;;;20.95;54.14;96503.13;4910505;28;20052;-78
2022/09/01 13:16:44;;;;;;;3.50;2.10;;;;;;;20.77;52.75;96502.94;4910986;28;20056;-79
2022/09/01 13:19:12;;;;;;;3.30;2.28;;;;;;;20.67;50.47;96492.56;4910440;28;20407;-78
2022/09/01 13:21:39;;;;;;;4.25;2.08;;;;;;;20.68;50.31;96498.91;4910820;28;20052;-78
2022/09/01 13:24:07;;;;;;;3.67;1.67;;;;;;;20.74;51.91;96498.19;4910213;28;20526;-78
2022/09/01 13:26:33;;;;;;;3.33;2.28;;;;;;;20.73;50.49;96487.50;4910723;28;20110;-78
2022/09/01 13:29:00;;;;;;;3.25;1.98;;;;;;;20.71;49.13;96492.59;4923511;28;20045;-76
2022/09/01 13:31:28;;;;;;;4.00;1.88;;;;;;;20.87;51.59;96489.59;4968680;28;20229;-74
2022/09/01 13:33:55;;;;;;;4.68;2.10;;;;;;;20.95;50.13;96497.59;5009773;28;20640;-77
2022/09/01 13:36:23;;;;;;;2.22;1.50;;;;;;;21.13;47.81;96496.94;5016357;28;20077;-78
2022/09/01 13:38:49;;;;;;;2.97;1.80;;;;;;;21.09;49.62;96497.72;5015625;28;20046;-79
2022/09/01 13:41:17;;;;;;;3.75;1.88;;;;;;;21.26;48.97;96489.94;5016040;28;20061;-78
2022/09/01 13:43:43;;;;;;;2.58;1.95;;;;;;;21.31;49.80;96489.59;5014505;28;20053;-78
2022/09/01 13:46:11;;;;;;;2.28;1.70;;;;;;;21.34;48.90;96486.84;5013988;28;20437;-78
2022/09/01 13:48:37;;;;;;;3.65;1.98;;;;;;;21.30;49.37;96482.47;5006262;28;20050;-78
2022/09/01 13:51:04;;;;;;;2.58;1.85;;;;;;;21.28;49.34;96476.47;4895574;28;20048;-79
2022/09/01 13:53:32;;;;;;;3.97;2.20;;;;;;;21.39;49.46;96477.38;5002218;28;20049;-79
2022/09/01 13:55:59;;;;;;;2.40;1.80;;;;;;;21.37;49.34;96468.66;5014272;28;20042;-79
2022/09/01 13:58:25;;;;;;;3.25;2.05;;;;;;;21.51;48.52;96474.31;5013719;28;20410;-79
2022/09/01 14:00:52;;;;;;;3.63;1.92;;;;;;;21.43;47.49;96469.09;5014219;28;20556;-79
2022/09/01 14:03:21;;;;;;;2.53;1.80;;;;;;;21.35;47.01;96468.25;5013728;28;20057;-80
2022/09/01 14:05:48;;;;;;;3.40;1.50;;;;;;;21.38;44.67;96470.25;5013767;28;20045;-78
2022/09/01 14:08:16;;;;;;;2.42;1.63;;;;;;;21.59;45.93;96464.84;5014505;28;20057;-81
2022/09/01 14:10:49;;;;;;;2.30;1.70;;;;;;;21.49;47.73;96457.25;5015746;28;20049;-80
2022/09/01 14:13:16;;;;;;;3.13;1.45;;;;;;;21.45;46.63;96464.75;5014849;28;20042;-81
2022/09/01 14:15:43;;;;;;;3.50;1.42;;;;;;;21.23;47.36;96463.78;5014924;28;20061;-78
2022/09/01 14:18:10;;;;;;;6.00;1.50;;;;;;;21.04;46.31;96466.81;5012493;28;20049;-78
2022/09/01 14:20:40;;;;;;;3.80;1.70;;;;;;;20.93;45.79;96463.94;4924396;28;20045;-79
2022/09/01 14:23:09;;;;;;;2.00;1.40;;;;;;;20.85;48.04;96462.31;4922309;28;20534;-81
2022/09/01 14:25:37;;;;;;;3.45;1.60;;;;;;;20.88;48.42;96460.72;4948075;23;20459;-81
2022/09/01 14:28:05;;;;;;;2.50;1.77;;;;;;;20.81;46.77;96456.72;4896875;28;20567;-81
2022/09/01 14:30:33;;;;;;;4.43;1.83;;;;;;;20.85;45.18;96454.78;4896561;28;20500;-81
2022/09/01 14:33:01;;;;;;;3.35;1.40;;;;;;;21.00;45.59;96450.19;4904652;28;20096;-82
2022/09/01 14:35:29;;;;;;;3.63;1.30;;;;;;;21.03;45.14;96454.13;4909476;28;20053;-80
2022/09/01 14:37:57;;;;;;;2.78;1.60;;;;;;;21.13;45.93;96453.44;4909836;28;20463;-81
2022/09/01 14:40:24;;;;;;;4.00;1.60;;;;;;;21.24;45.36;96442.41;4908633;28;20049;-80
2022/09/01 14:42:52;;;;;;;2.88;1.38;;;;;;;21.31;45.17;96442.53;4897118;28;20674;-80
2022/09/01 14:45:23;;;;;;;1.85;1.20;;;;;;;21.40;44.74;96445.72;4893598;28;20056;-82